Time;durP1;ratioP1;P1;durP2;ratioP2;P2;SDS_P1;SDS_P2;PMS_P1;PMS_P2;Temp;Humidity;BMP_temperature;BMP_pressure;BME280_temperature;BME280_humidity;BME280_pressure;Samples;Min_cycle;Max_cycle;Signal;HPM_P1;HPM_P2
2021/05/19 00:01:18;;;;;;;3.45;1.60;;;12.10;99.90;;;;;;4126148;28;20479;-81
2021/05/19 00:03:19;;;;;;;1.67;1.42;;;12.10;99.90;;;;;;4124915;28;20025;-80
2021/05/19 00:05:20;;;;;;;2.08;1.60;;;12.10;99.90;;;;;;4125160;28;20026;-80
2021/05/19 00:07:21;;;;;;;2.47;1.73;;;12.10;99.90;;;;;;4125194;28;20438;-81
2021/05/19 00:09:21;;;;;;;3.22;1.80;;;12.10;99.90;;;;;;4109250;28;20400;-81
2021/05/19 00:11:22;;;;;;;2.67;1.52;;;12.00;99.90;;;;;;4109363;28;20035;-81
2021/05/19 00:13:27;;;;;;;2.95;1.90;;;12.00;99.90;;;;;;4126222;28;20035;-81
2021/05/19 00:15:27;;;;;;;3.65;1.90;;;12.00;99.90;;;;;;4125444;28;20050;-81
2021/05/19 00:17:28;;;;;;;2.95;1.63;;;12.00;99.90;;;;;;4126621;28;20395;-81
2021/05/19 00:19:29;;;;;;;2.97;1.73;;;11.90;99.90;;;;;;4126241;28;20034;-81
2021/05/19 00:21:29;;;;;;;2.25;1.58;;;11.90;99.90;;;;;;4124892;28;20400;-81
2021/05/19 00:23:31;;;;;;;2.03;1.45;;;11.90;99.90;;;;;;4109684;28;20129;-81
2021/05/19 00:25:31;;;;;;;2.00;1.80;;;11.90;99.90;;;;;;4126018;28;20425;-81
2021/05/19 00:27:32;;;;;;;1.98;1.77;;;11.90;99.90;;;;;;4112486;28;20030;-81
2021/05/19 00:29:33;;;;;;;2.33;1.70;;;11.90;99.90;;;;;;4112414;28;20043;-81
2021/05/19 00:31:34;;;;;;;2.72;1.88;;;11.80;99.90;;;;;;4129031;28;20049;-81
2021/05/19 00:33:35;;;;;;;4.45;1.90;;;11.80;99.90;;;;;;4128493;28;20108;-81
2021/05/19 00:35:35;;;;;;;2.17;1.67;;;11.80;99.90;;;;;;4130055;28;20097;-81
2021/05/19 00:37:36;;;;;;;1.45;1.33;;;11.80;99.90;;;;;;4128765;28;20473;-81
2021/05/19 00:39:36;;;;;;;3.50;1.63;;;11.80;99.90;;;;;;4129001;28;20105;-80
2021/05/19 00:41:40;;;;;;;2.78;1.75;;;11.80;99.90;;;;;;4112705;28;20049;-81
2021/05/19 00:43:41;;;;;;;1.77;1.30;;;11.80;99.90;;;;;;4112688;28;20049;-81
2021/05/19 00:45:42;;;;;;;2.55;1.60;;;11.70;99.90;;;;;;4128396;28;20045;-81
2021/05/19 00:47:43;;;;;;;3.38;1.80;;;11.70;99.90;;;;;;4130623;28;20034;-80
2021/05/19 00:49:44;;;;;;;3.22;2.00;;;11.70;99.90;;;;;;4128023;28;20038;-81
2021/05/19 00:51:44;;;;;;;2.85;1.50;;;11.70;99.90;;;;;;4112036;28;20423;-81
2021/05/19 00:53:45;;;;;;;2.03;1.50;;;11.70;99.90;;;;;;4128330;28;20413;-81
2021/05/19 00:55:46;;;;;;;2.55;1.48;;;11.70;99.90;;;;;;4130007;28;20038;-81
2021/05/19 00:57:53;;;;;;;2.35;1.63;;;11.60;99.90;;;;;;4112225;28;20035;-81
2021/05/19 00:59:53;;;;;;;2.00;1.80;;;11.60;99.90;;;;;;4110884;28;20042;-80
2021/05/19 01:01:54;;;;;;;2.53;1.63;;;11.60;99.90;;;;;;4111545;28;20031;-81
2021/05/19 01:03:55;;;;;;;1.60;1.50;;;11.60;99.90;;;;;;4127517;28;20126;-81
2021/05/19 01:06:05;;;;;;;2.83;1.63;;;11.60;99.90;;;;;;4127421;28;20066;-81
2021/05/19 01:10:25;;;;;;;2.97;2.13;;;11.60;99.90;;;;;;4127910;28;20038;-81
2021/05/19 01:12:26;;;;;;;3.53;2.08;;;11.60;99.90;;;;;;4128120;28;20041;-81
2021/05/19 01:14:26;;;;;;;2.22;1.85;;;11.60;99.90;;;;;;4128081;28;20029;-81
2021/05/19 01:16:27;;;;;;;2.45;2.03;;;11.60;99.90;;;;;;4113615;28;20026;-80
2021/05/19 01:18:28;;;;;;;3.40;2.17;;;11.60;99.90;;;;;;4128141;28;20026;-80
2021/05/19 01:20:29;;;;;;;2.83;2.10;;;11.60;99.90;;;;;;4128028;28;20038;-80
2021/05/19 01:22:29;;;;;;;1.83;1.60;;;11.60;99.90;;;;;;4111881;28;20038;-81
2021/05/19 01:24:30;;;;;;;3.28;2.05;;;11.60;99.90;;;;;;4128486;28;20536;-81
2021/05/19 01:26:32;;;;;;;2.25;1.98;;;11.70;99.90;;;;;;4128185;28;20518;-81
2021/05/19 01:28:32;;;;;;;2.30;2.05;;;11.60;99.90;;;;;;4128125;28;20593;-81
2021/05/19 01:30:35;;;;;;;1.90;1.70;;;11.60;99.90;;;;;;4127860;28;20038;-81
2021/05/19 01:32:36;;;;;;;2.05;1.80;;;11.60;99.90;;;;;;4111951;28;20042;-81
2021/05/19 01:34:36;;;;;;;3.55;2.05;;;11.60;99.90;;;;;;4126979;28;20042;-81
2021/05/19 01:36:37;;;;;;;2.40;1.65;;;11.60;99.90;;;;;;4128142;28;20065;-80
2021/05/19 01:38:38;;;;;;;1.92;1.73;;;11.60;99.90;;;;;;4128962;28;20062;-80
2021/05/19 01:40:39;;;;;;;1.88;1.70;;;11.60;99.90;;;;;;4129242;28;20406;-81
2021/05/19 01:42:45;;;;;;;2.33;2.13;;;11.60;99.90;;;;;;4127955;28;20046;-80
2021/05/19 01:44:46;;;;;;;2.90;2.30;;;11.60;99.90;;;;;;4106975;28;20190;-80
2021/05/19 01:46:46;;;;;;;3.63;2.13;;;11.60;99.90;;;;;;4127919;28;20046;-81
2021/05/19 01:48:54;;;;;;;3.30;2.38;;;11.60;99.90;;;;;;4128526;28;20064;-81
2021/05/19 01:50:55;;;;;;;3.50;2.47;;;11.60;99.90;;;;;;4111678;28;20031;-81
2021/05/19 01:53:00;;;;;;;6.05;2.88;;;11.50;99.90;;;;;;4128599;28;20041;-81
2021/05/19 01:55:01;;;;;;;6.55;2.40;;;11.60;99.90;;;;;;4126330;28;20117;-80
2021/05/19 01:57:05;;;;;;;3.70;2.70;;;11.60;99.90;;;;;;4129578;28;20034;-81
2021/05/19 01:59:06;;;;;;;2.97;2.42;;;11.60;99.90;;;;;;4126196;28;20048;-81
2021/05/19 02:01:07;;;;;;;3.08;2.70;;;11.60;99.90;;;;;;4111965;28;20483;-81
2021/05/19 02:03:07;;;;;;;4.93;2.58;;;11.60;99.90;;;;;;4127676;28;20034;-81
2021/05/19 02:05:14;;;;;;;2.67;2.30;;;11.60;99.90;;;;;;4127320;28;20034;-81
2021/05/19 02:07:15;;;;;;;2.85;2.47;;;11.60;99.90;;;;;;4105774;28;20467;-80
2021/05/19 02:09:17;;;;;;;3.20;2.83;;;11.60;99.90;;;;;;4120470;28;20058;-80
2021/05/19 02:11:18;;;;;;;;;;;11.60;99.90;;;;;;4104716;28;20035;-80
2021/05/19 02:13:19;;;;;;;3.90;1.83;;;11.70;99.90;;;;;;4134799;28;20497;-81
2021/05/19 02:15:20;;;;;;;2.47;1.85;;;11.60;99.90;;;;;;4101496;28;20114;-81
2021/05/19 02:17:20;;;;;;;2.75;2.20;;;11.70;99.90;;;;;;4104249;28;20215;-81
2021/05/19 02:19:21;;;;;;;2.80;2.15;;;11.70;99.90;;;;;;4139063;28;20038;-81
2021/05/19 02:21:22;;;;;;;2.33;2.05;;;11.60;99.90;;;;;;4121308;28;20357;-80
2021/05/19 02:23:22;;;;;;;2.25;2.05;;;11.70;99.90;;;;;;4106570;28;20121;-80
2021/05/19 02:25:23;;;;;;;4.03;2.35;;;11.70;99.90;;;;;;4105513;28;20035;-80
2021/05/19 02:27:24;;;;;;;2.65;2.13;;;11.70;99.90;;;;;;4110647;28;20042;-80
2021/05/19 02:29:25;;;;;;;2.53;2.20;;;11.70;99.90;;;;;;4110927;28;20538;-81
2021/05/19 02:31:26;;;;;;;2.90;2.35;;;11.70;99.90;;;;;;4126549;28;20035;-81
2021/05/19 02:33:26;;;;;;;4.22;2.60;;;11.70;99.90;;;;;;4127434;28;20089;-81
2021/05/19 02:35:27;;;;;;;6.90;2.95;;;11.70;99.90;;;;;;4127296;28;20364;-80
2021/05/19 02:37:28;;;;;;;5.72;3.40;;;11.80;99.90;;;;;;4110688;28;20027;-80
2021/05/19 02:39:28;;;;;;;4.10;3.25;;;11.80;99.90;;;;;;4129796;28;20398;-80
2021/05/19 02:41:29;;;;;;;5.18;3.75;;;11.80;99.90;;;;;;4128357;28;20042;-80
2021/05/19 02:43:29;;;;;;;4.93;3.50;;;11.80;99.90;;;;;;4123630;28;20058;-81
2021/05/19 02:45:30;;;;;;;4.68;3.63;;;11.80;99.90;;;;;;4128096;28;20400;-81
2021/05/19 02:47:31;;;;;;;5.90;3.50;;;11.80;99.90;;;;;;4125837;28;20089;-81
2021/05/19 02:49:31;;;;;;;6.80;4.07;;;11.80;99.90;;;;;;4126243;28;20034;-80
2021/05/19 02:51:34;;;;;;;6.57;4.13;;;11.80;99.90;;;;;;4126705;28;20066;-80
2021/05/19 02:53:35;;;;;;;8.93;4.20;;;11.80;99.90;;;;;;4110395;28;20395;-80
2021/05/19 02:55:35;;;;;;;5.68;4.18;;;11.70;99.90;;;;;;4121917;28;20027;-80
2021/05/19 02:57:36;;;;;;;5.43;4.18;;;11.70;99.90;;;;;;4110348;28;20394;-80
2021/05/19 02:59:37;;;;;;;5.95;4.28;;;11.70;99.90;;;;;;4109636;28;20121;-80
2021/05/19 03:01:37;;;;;;;6.07;4.28;;;11.70;99.90;;;;;;4107826;28;20030;-80
2021/05/19 03:03:38;;;;;;;6.35;4.50;;;11.70;99.90;;;;;;4109832;28;20109;-80
2021/05/19 03:05:39;;;;;;;5.88;4.60;;;11.60;99.90;;;;;;4110426;28;20038;-80
2021/05/19 03:07:40;;;;;;;8.88;4.38;;;11.60;99.90;;;;;;4126096;28;20105;-80
2021/05/19 03:09:41;;;;;;;6.55;3.70;;;11.60;99.90;;;;;;4126865;28;20697;-81
2021/05/19 03:11:41;;;;;;;6.80;4.47;;;11.60;99.90;;;;;;4126074;28;20030;-81
2021/05/19 03:13:42;;;;;;;6.07;4.50;;;11.60;99.90;;;;;;4108819;28;20038;-81
2021/05/19 03:15:43;;;;;;;5.97;4.38;;;11.60;99.90;;;;;;4106951;28;20466;-80
2021/05/19 03:17:44;;;;;;;6.07;4.15;;;11.60;99.90;;;;;;4107513;28;20049;-80
2021/05/19 03:19:44;;;;;;;6.97;4.97;;;11.60;99.90;;;;;;4117179;28;20074;-81
2021/05/19 03:21:45;;;;;;;6.43;4.78;;;11.60;99.90;;;;;;4118127;28;20066;-81
2021/05/19 03:23:45;;;;;;;6.28;4.28;;;11.60;99.90;;;;;;4110329;28;20034;-80
2021/05/19 03:25:46;;;;;;;14.52;4.63;;;11.60;99.90;;;;;;4109368;28;20034;-80
2021/05/19 03:27:47;;;;;;;7.72;4.20;;;11.60;99.90;;;;;;4126104;28;20475;-81
2021/05/19 03:29:47;;;;;;;5.78;4.47;;;11.60;99.90;;;;;;4122838;28;20500;-81
2021/05/19 03:31:48;;;;;;;6.25;3.92;;;11.60;99.90;;;;;;4103440;28;20077;-81
2021/05/19 03:33:49;;;;;;;6.03;4.38;;;11.60;99.90;;;;;;4105774;28;20101;-80
2021/05/19 03:35:49;;;;;;;5.75;4.38;;;11.60;99.90;;;;;;4124296;28;20066;-80
2021/05/19 03:37:50;;;;;;;7.47;4.50;;;11.60;99.90;;;;;;4103591;28;20062;-81
2021/05/19 03:39:51;;;;;;;4.28;3.53;;;11.60;99.90;;;;;;4103760;28;20031;-80
2021/05/19 03:41:51;;;;;;;6.75;4.53;;;11.60;99.90;;;;;;4126440;28;20479;-80
2021/05/19 03:43:52;;;;;;;5.25;4.40;;;11.60;99.90;;;;;;4125457;28;20035;-80
2021/05/19 03:45:53;;;;;;;6.68;4.40;;;11.70;99.90;;;;;;4109486;28;20419;-80
2021/05/19 03:47:54;;;;;;;5.88;3.97;;;11.60;99.90;;;;;;4127728;28;20049;-80
2021/05/19 03:49:54;;;;;;;6.25;4.88;;;11.60;99.90;;;;;;4110253;28;20089;-81
2021/05/19 03:51:55;;;;;;;6.15;4.43;;;11.60;99.90;;;;;;4126505;28;20069;-81
2021/05/19 03:53:56;;;;;;;6.70;5.35;;;11.50;99.90;;;;;;4109440;28;20098;-81
2021/05/19 03:55:57;;;;;;;5.60;4.63;;;11.50;99.90;;;;;;4125310;28;20347;-81
2021/05/19 03:57:58;;;;;;;7.28;4.78;;;11.50;99.90;;;;;;4125360;28;20368;-81
2021/05/19 03:59:58;;;;;;;6.80;5.28;;;11.50;99.90;;;;;;4110151;28;20035;-80
2021/05/19 04:01:59;;;;;;;7.05;5.53;;;11.50;99.90;;;;;;4127077;28;20044;-80
2021/05/19 04:04:00;;;;;;;6.70;5.20;;;11.50;99.90;;;;;;4130861;28;20048;-80
2021/05/19 04:06:01;;;;;;;7.90;5.40;;;11.40;99.90;;;;;;4113369;28;20030;-81
2021/05/19 04:08:04;;;;;;;6.72;5.53;;;11.40;99.90;;;;;;4128471;28;20034;-80
2021/05/19 04:10:05;;;;;;;6.75;5.70;;;11.40;99.90;;;;;;4112735;28;20031;-80
2021/05/19 04:12:06;;;;;;;6.35;5.35;;;11.40;99.90;;;;;;4145257;28;20104;-80
2021/05/19 04:14:07;;;;;;;6.70;5.53;;;11.30;99.90;;;;;;4111530;28;20074;-81
2021/05/19 04:16:08;;;;;;;9.43;6.53;;;11.30;99.90;;;;;;4128418;28;20037;-81
2021/05/19 04:18:08;;;;;;;10.80;6.10;;;11.30;99.90;;;;;;4128842;28;20154;-80
2021/05/19 04:20:10;;;;;;;9.80;6.25;;;11.30;99.90;;;;;;4129840;28;20042;-80
2021/05/19 04:22:11;;;;;;;8.80;6.57;;;11.20;99.90;;;;;;4112335;28;20050;-80
2021/05/19 04:24:11;;;;;;;8.93;7.05;;;11.20;99.90;;;;;;4112628;28;20124;-81
2021/05/19 04:26:12;;;;;;;8.10;6.90;;;11.20;99.90;;;;;;4128359;28;20030;-80
2021/05/19 04:28:14;;;;;;;9.32;6.72;;;11.20;99.90;;;;;;4128921;28;20046;-80
2021/05/19 04:30:16;;;;;;;9.93;6.82;;;11.20;99.90;;;;;;4128471;28;20491;-81
2021/05/19 04:32:17;;;;;;;9.50;7.00;;;11.20;99.90;;;;;;4129059;28;20038;-80
2021/05/19 04:34:18;;;;;;;9.15;6.80;;;11.10;99.90;;;;;;4127550;28;20426;-80
2021/05/19 04:36:19;;;;;;;8.52;6.55;;;11.10;99.90;;;;;;4128758;28;20089;-80
2021/05/19 04:38:19;;;;;;;9.35;7.95;;;11.10;99.90;;;;;;4130142;28;20446;-80
2021/05/19 04:40:20;;;;;;;8.80;7.68;;;11.10;99.90;;;;;;4128323;28;20053;-80
2021/05/19 04:42:20;;;;;;;9.98;8.43;;;11.10;99.90;;;;;;4128439;28;20042;-81
2021/05/19 04:44:21;;;;;;;10.95;8.52;;;11.10;99.90;;;;;;4129759;28;20128;-80
2021/05/19 04:46:22;;;;;;;10.82;8.15;;;11.10;99.90;;;;;;4110871;28;20027;-80
2021/05/19 04:48:22;;;;;;;10.48;8.27;;;11.10;99.90;;;;;;4111286;28;20039;-81
2021/05/19 04:50:23;;;;;;;9.43;8.10;;;11.10;99.90;;;;;;4112179;28;20039;-81
2021/05/19 04:52:24;;;;;;;10.35;8.02;;;11.10;99.90;;;;;;4111799;28;20027;-81
2021/05/19 04:54:24;;;;;;;8.63;7.50;;;11.10;99.90;;;;;;4126202;28;20049;-81
2021/05/19 04:56:25;;;;;;;10.60;7.70;;;11.10;99.90;;;;;;4127222;28;20427;-81
2021/05/19 04:58:26;;;;;;;10.70;8.85;;;11.20;99.90;;;;;;4126928;28;20294;-81
2021/05/19 05:00:27;;;;;;;13.40;9.50;;;11.20;99.90;;;;;;4108831;28;20057;-81
2021/05/19 05:02:28;;;;;;;11.55;8.25;;;11.20;99.90;;;;;;4127936;28;20040;-81
2021/05/19 05:04:28;;;;;;;9.63;7.63;;;11.20;99.90;;;;;;4126210;28;20046;-80
2021/05/19 05:06:29;;;;;;;11.50;8.43;;;11.20;99.90;;;;;;4127656;28;20121;-81
2021/05/19 05:08:30;;;;;;;10.77;8.15;;;11.20;99.90;;;;;;4125155;28;20047;-81
2021/05/19 05:10:30;;;;;;;12.10;8.70;;;11.30;99.90;;;;;;4125339;28;20058;-80
2021/05/19 05:12:31;;;;;;;12.63;8.50;;;11.30;99.90;;;;;;4109821;28;20035;-80
2021/05/19 05:14:32;;;;;;;10.63;8.15;;;11.30;99.90;;;;;;4127844;28;20026;-80
2021/05/19 05:16:32;;;;;;;12.35;8.77;;;11.30;99.90;;;;;;4127363;28;20530;-80
2021/05/19 05:18:35;;;;;;;14.40;9.23;;;11.30;99.90;;;;;;4127016;28;20493;-81
2021/05/19 05:20:35;;;;;;;10.93;8.68;;;11.30;99.90;;;;;;4127988;28;20049;-80
2021/05/19 05:22:37;;;;;;;12.13;9.55;;;11.30;99.90;;;;;;4103496;28;20038;-81
2021/05/19 05:24:38;;;;;;;12.93;8.95;;;11.30;99.90;;;;;;4129044;28;20030;-81
2021/05/19 05:26:39;;;;;;;14.18;9.38;;;11.30;99.90;;;;;;4124812;28;20038;-81
2021/05/19 05:28:39;;;;;;;13.02;9.73;;;11.30;99.90;;;;;;4118955;28;20125;-81
2021/05/19 05:30:40;;;;;;;14.38;9.02;;;11.40;99.90;;;;;;4120662;28;20042;-81
2021/05/19 05:32:41;;;;;;;11.70;8.60;;;11.40;99.90;;;;;;4099297;28;20031;-81
2021/05/19 05:34:42;;;;;;;10.20;7.78;;;11.40;99.90;;;;;;4086998;28;20038;-81
2021/05/19 05:36:42;;;;;;;12.93;9.23;;;11.50;99.90;;;;;;4113470;28;20042;-81
2021/05/19 05:38:44;;;;;;;10.05;8.35;;;11.40;99.90;;;;;;4121277;28;20141;-81
2021/05/19 05:40:45;;;;;;;10.25;8.40;;;11.50;99.90;;;;;;4119911;28;20049;-81
2021/05/19 05:42:45;;;;;;;11.50;8.35;;;11.50;99.90;;;;;;4123475;28;20505;-81
2021/05/19 05:44:46;;;;;;;13.43;8.27;;;11.50;99.90;;;;;;4126602;28;20269;-81
2021/05/19 05:46:46;;;;;;;13.38;8.57;;;11.50;99.90;;;;;;4109450;28;20320;-81
2021/05/19 05:48:47;;;;;;;11.40;8.05;;;11.50;99.90;;;;;;4122659;28;20042;-81
2021/05/19 05:50:48;;;;;;;12.07;8.82;;;11.50;99.90;;;;;;4120207;28;20069;-80
2021/05/19 05:52:48;;;;;;;12.40;8.00;;;11.50;99.90;;;;;;4120498;28;20069;-80
2021/05/19 05:54:50;;;;;;;14.70;8.57;;;11.50;99.90;;;;;;4103523;28;20075;-80
2021/05/19 05:56:51;;;;;;;10.75;7.75;;;11.50;99.90;;;;;;4106078;28;20042;-80
2021/05/19 05:58:51;;;;;;;11.05;7.60;;;11.60;99.90;;;;;;4106300;28;20039;-81
2021/05/19 06:00:53;;;;;;;11.57;8.43;;;11.60;99.90;;;;;;4129350;28;20591;-80
2021/05/19 06:02:54;;;;;;;11.18;8.00;;;11.60;99.90;;;;;;4106035;28;20034;-80
2021/05/19 06:04:55;;;;;;;10.75;7.15;;;11.60;99.90;;;;;;4122464;28;20066;-80
2021/05/19 06:06:56;;;;;;;17.15;9.18;;;11.70;99.90;;;;;;4125301;28;20124;-81
2021/05/19 06:08:56;;;;;;;13.75;7.78;;;11.70;99.90;;;;;;4106894;28;20226;-80
2021/05/19 06:10:58;;;;;;;10.82;7.10;;;11.70;99.90;;;;;;4122779;28;20107;-80
2021/05/19 06:12:59;;;;;;;12.90;7.97;;;11.70;99.90;;;;;;4126191;28;20049;-80
2021/05/19 06:15:00;;;;;;;11.30;7.78;;;11.80;99.90;;;;;;4109633;28;20422;-80
2021/05/19 06:17:02;;;;;;;12.77;7.10;;;11.90;99.90;;;;;;4143333;28;20037;-80
2021/05/19 06:19:03;;;;;;;;;;;12.00;99.90;;;;;;4123769;28;20405;-81
2021/05/19 06:21:04;;;;;;;11.20;6.65;;;12.10;99.90;;;;;;4117042;28;19965;-81
2021/05/19 06:23:05;;;;;;;10.32;6.80;;;12.20;99.90;;;;;;4131018;28;20049;-80
2021/05/19 06:25:06;;;;;;;12.00;7.93;;;12.30;99.90;;;;;;4124918;28;20485;-80
2021/05/19 06:27:07;;;;;;;9.95;7.05;;;12.30;99.90;;;;;;4111237;28;20031;-79
2021/05/19 06:29:08;;;;;;;10.52;7.00;;;12.30;99.90;;;;;;4127761;28;20049;-79
2021/05/19 06:31:08;;;;;;;10.85;6.55;;;12.30;99.90;;;;;;4123338;28;20049;-80
2021/05/19 06:33:09;;;;;;;11.00;6.47;;;12.30;99.90;;;;;;4122132;28;20122;-79
2021/05/19 06:35:12;;;;;;;11.23;6.70;;;12.30;99.90;;;;;;4129023;28;20723;-79
2021/05/19 06:37:13;;;;;;;13.68;7.32;;;12.30;99.90;;;;;;4130611;28;20527;-79
2021/05/19 06:39:25;;;;;;;15.18;7.90;;;12.30;99.90;;;;;;4131670;28;20098;-79
2021/05/19 06:41:26;;;;;;;11.23;6.63;;;12.30;99.90;;;;;;4130214;28;20058;-79
2021/05/19 06:43:30;;;;;;;9.07;5.68;;;12.30;99.90;;;;;;4129145;28;21503;-78
2021/05/19 06:45:31;;;;;;;9.00;6.10;;;12.40;99.90;;;;;;4128962;28;20039;-79
2021/05/19 06:47:32;;;;;;;8.88;6.45;;;12.40;99.90;;;;;;4126891;28;20545;-79
2021/05/19 06:49:37;;;;;;;10.90;6.88;;;12.40;99.90;;;;;;4126808;28;20030;-79
2021/05/19 06:51:46;;;;;;;9.85;6.38;;;12.50;99.90;;;;;;4123786;28;20555;-78
2021/05/19 06:53:46;;;;;;;14.85;6.90;;;12.40;99.90;;;;;;4127703;28;20113;-78
2021/05/19 06:55:50;;;;;;;11.48;6.47;;;12.50;99.90;;;;;;4125257;28;20030;-78
2021/05/19 06:57:52;;;;;;;10.30;5.70;;;12.50;99.90;;;;;;4126411;28;20043;-78
2021/05/19 06:59:52;;;;;;;12.45;6.90;;;12.50;99.90;;;;;;4127787;28;20056;-78
2021/05/19 07:01:53;;;;;;;14.18;6.68;;;12.50;99.90;;;;;;4122666;28;20034;-78
2021/05/19 07:03:54;;;;;;;9.75;5.53;;;12.50;99.90;;;;;;4127258;28;20073;-78
2021/05/19 07:05:54;;;;;;;10.18;6.10;;;12.60;99.90;;;;;;4125615;28;20044;-78
2021/05/19 07:07:55;;;;;;;10.63;5.85;;;12.60;99.90;;;;;;4125651;28;20034;-78
2021/05/19 07:09:57;;;;;;;10.23;5.60;;;12.60;99.90;;;;;;4127890;28;20406;-78
2021/05/19 07:11:58;;;;;;;12.32;6.32;;;12.60;99.90;;;;;;4124943;28;20070;-78
2021/05/19 07:14:01;;;;;;;11.38;5.90;;;12.70;99.90;;;;;;4126187;28;20049;-78
2021/05/19 07:16:08;;;;;;;11.63;5.50;;;12.70;99.90;;;;;;4127147;28;20118;-78
2021/05/19 07:18:15;;;;;;;12.30;6.68;;;12.70;99.90;;;;;;4108185;28;20035;-78
2021/05/19 07:20:16;;;;;;;11.57;6.10;;;12.70;99.90;;;;;;4123787;28;20050;-78
2021/05/19 07:22:18;;;;;;;9.27;5.07;;;12.80;99.90;;;;;;4121835;28;20712;-78
2021/05/19 07:24:18;;;;;;;13.25;6.63;;;12.80;99.90;;;;;;4130205;28;20039;-78
2021/05/19 07:26:24;;;;;;;10.55;4.97;;;12.80;99.90;;;;;;4135173;28;20092;-78
2021/05/19 07:28:27;;;;;;;11.02;5.80;;;12.90;99.90;;;;;;4120215;28;20053;-79
2021/05/19 07:30:28;;;;;;;11.60;5.28;;;12.90;99.90;;;;;;4123257;28;20441;-79
2021/05/19 07:32:28;;;;;;;7.60;4.80;;;12.90;99.90;;;;;;4123977;28;20204;-78
2021/05/19 07:34:29;;;;;;;16.02;5.80;;;13.00;99.90;;;;;;4124914;28;20673;-80
2021/05/19 07:36:30;;;;;;;13.88;6.10;;;13.00;99.90;;;;;;4127482;28;20074;-78
2021/05/19 07:38:31;;;;;;;8.70;5.10;;;13.00;99.90;;;;;;4128965;28;20107;-79
2021/05/19 07:40:31;;;;;;;14.02;6.32;;;13.00;99.90;;;;;;4130227;28;20121;-78
2021/05/19 07:42:32;;;;;;;11.93;5.18;;;13.10;99.90;;;;;;4126462;28;20129;-78
2021/05/19 07:44:33;;;;;;;9.25;4.93;;;13.10;99.90;;;;;;4127214;28;20034;-79
2021/05/19 07:46:34;;;;;;;10.98;5.40;;;13.10;99.90;;;;;;4125742;28;20114;-78
2021/05/19 07:48:34;;;;;;;9.43;4.75;;;13.20;99.90;;;;;;4130481;28;20431;-78
2021/05/19 07:50:35;;;;;;;11.75;5.35;;;13.20;99.90;;;;;;4123632;28;20045;-78
2021/05/19 07:52:36;;;;;;;10.25;5.05;;;13.20;99.90;;;;;;4125280;28;21570;-78
2021/05/19 07:54:42;;;;;;;8.82;4.45;;;13.20;99.90;;;;;;4125344;28;20038;-79
2021/05/19 07:56:56;;;;;;;7.95;4.43;;;13.20;99.90;;;;;;4125918;28;20046;-78
2021/05/19 07:59:10;;;;;;;10.25;5.28;;;13.20;99.90;;;;;;4124195;28;20050;-78
2021/05/19 08:01:24;;;;;;;12.85;5.38;;;13.20;99.90;;;;;;4123946;28;20035;-78
2021/05/19 08:03:25;;;;;;;12.63;5.32;;;13.20;99.90;;;;;;4107836;28;20101;-78
2021/05/19 08:05:25;;;;;;;11.65;5.18;;;13.20;99.90;;;;;;4124628;28;20061;-78
2021/05/19 08:07:26;;;;;;;11.05;4.80;;;13.20;99.90;;;;;;4125908;28;20104;-78
2021/05/19 08:09:27;;;;;;;14.70;5.60;;;13.30;99.90;;;;;;4122076;28;20038;-78
2021/05/19 08:11:28;;;;;;;13.05;5.78;;;13.30;99.90;;;;;;4125062;28;20046;-79
2021/05/19 08:13:28;;;;;;;13.13;5.35;;;13.30;99.90;;;;;;4125917;28;20046;-78
2021/05/19 08:15:36;;;;;;;11.02;5.25;;;13.30;99.90;;;;;;4122152;28;20069;-78
2021/05/19 08:17:37;;;;;;;11.18;5.47;;;13.20;99.90;;;;;;4128215;28;21155;-78
2021/05/19 08:19:38;;;;;;;10.05;4.47;;;13.20;99.90;;;;;;4126147;28;20172;-78
2021/05/19 08:21:39;;;;;;;9.63;5.53;;;13.20;99.90;;;;;;4130760;28;20038;-78
2021/05/19 08:23:40;;;;;;;14.38;5.22;;;13.30;99.90;;;;;;4124426;28;20121;-78
2021/05/19 08:25:40;;;;;;;10.02;4.60;;;13.20;99.90;;;;;;4110681;28;20031;-78
2021/05/19 08:27:41;;;;;;;10.65;4.07;;;13.30;99.90;;;;;;4123738;28;20030;-78
2021/05/19 08:29:43;;;;;;;11.95;5.15;;;13.30;99.90;;;;;;4129814;28;20064;-78
2021/05/19 08:31:43;;;;;;;11.45;4.78;;;13.20;99.90;;;;;;4125116;28;20509;-78
2021/05/19 08:33:46;;;;;;;10.15;3.60;;;13.30;99.90;;;;;;4122938;28;20034;-79
2021/05/19 08:35:46;;;;;;;11.63;4.18;;;13.20;99.90;;;;;;4125896;28;20034;-78
2021/05/19 08:37:47;;;;;;;16.05;4.93;;;13.30;99.90;;;;;;4128144;28;20097;-78
2021/05/19 08:39:48;;;;;;;9.60;4.70;;;13.30;99.90;;;;;;4127715;28;20046;-78
2021/05/19 08:42:01;;;;;;;7.63;3.47;;;13.30;99.90;;;;;;4125622;28;20061;-78
2021/05/19 08:44:04;;;;;;;13.82;4.55;;;13.40;99.90;;;;;;4129212;28;20090;-78
2021/05/19 08:46:07;;;;;;;7.65;3.83;;;13.40;99.90;;;;;;4125425;28;20109;-78
2021/05/19 08:48:08;;;;;;;13.13;4.90;;;13.40;99.90;;;;;;4129736;28;20039;-78
2021/05/19 08:50:10;;;;;;;12.45;4.45;;;13.50;99.90;;;;;;4126345;28;20113;-78
2021/05/19 08:52:11;;;;;;;9.18;4.40;;;13.50;99.90;;;;;;4130865;28;20026;-78
2021/05/19 08:54:12;;;;;;;13.38;4.55;;;13.50;99.90;;;;;;4124295;28;20084;-79
2021/05/19 08:56:13;;;;;;;12.20;4.13;;;13.40;99.90;;;;;;4129149;28;20168;-78
2021/05/19 08:58:14;;;;;;;10.32;4.20;;;13.40;99.90;;;;;;4130257;28;20042;-78
2021/05/19 09:00:16;;;;;;;11.27;4.35;;;13.40;99.90;;;;;;4130149;28;20069;-79
2021/05/19 09:02:17;;;;;;;20.83;5.75;;;13.40;99.90;;;;;;4131331;28;20092;-80
2021/05/19 09:04:24;;;;;;;9.07;3.70;;;13.30;99.90;;;;;;4129389;28;20117;-78
2021/05/19 09:06:27;;;;;;;12.00;4.45;;;13.30;99.90;;;;;;4126180;28;20043;-78
2021/05/19 09:08:35;;;;;;;7.78;3.10;;;13.40;99.90;;;;;;4139142;28;20038;-78
2021/05/19 09:10:41;;;;;;;10.15;2.85;;;13.40;99.90;;;;;;4132623;28;20561;-78
2021/05/19 09:12:41;;;;;;;9.07;3.15;;;13.40;99.90;;;;;;4128636;28;20122;-78
2021/05/19 09:14:50;;;;;;;13.02;3.60;;;13.40;99.90;;;;;;4132716;28;20034;-78
2021/05/19 09:16:51;;;;;;;7.55;3.38;;;13.50;99.90;;;;;;4117571;28;20127;-80
2021/05/19 09:19:00;;;;;;;9.75;2.75;;;13.40;99.90;;;;;;4124570;28;20046;-79
2021/05/19 09:21:01;;;;;;;5.82;2.30;;;13.50;99.90;;;;;;4123070;28;20042;-79
2021/05/19 09:23:05;;;;;;;9.77;3.33;;;13.60;99.90;;;;;;4132145;28;20130;-79
2021/05/19 09:25:21;;;;;;;9.05;2.88;;;13.70;99.90;;;;;;4132716;28;20041;-79
2021/05/19 09:27:39;;;;;;;12.55;3.40;;;13.70;99.90;;;;;;4129236;28;20050;-79
2021/05/19 09:29:43;;;;;;;8.43;3.00;;;13.80;99.90;;;;;;4122364;28;20117;-79
2021/05/19 09:32:01;;;;;;;6.93;3.25;;;13.80;99.90;;;;;;4133126;28;20026;-79
2021/05/19 09:34:23;;;;;;;10.68;3.55;;;13.90;99.90;;;;;;4134783;28;20030;-79
2021/05/19 09:36:26;;;;;;;6.30;2.60;;;14.00;99.90;;;;;;4130447;28;20038;-79
2021/05/19 09:38:33;;;;;;;;;;;14.00;99.90;;;;;;4121728;28;20336;-79
2021/05/19 09:40:34;;;;;;;9.35;2.90;;;14.00;99.90;;;;;;4130849;28;19993;-79
2021/05/19 09:42:46;;;;;;;10.73;2.90;;;14.10;99.90;;;;;;4130757;28;20431;-79
2021/05/19 09:44:49;;;;;;;8.82;3.50;;;14.20;99.90;;;;;;4124495;28;20038;-79
2021/05/19 09:46:52;;;;;;;8.48;2.90;;;14.20;99.90;;;;;;4132021;28;20138;-79
2021/05/19 09:49:18;;;;;;;8.85;2.97;;;14.40;99.90;;;;;;4126955;28;20579;-79
2021/05/19 09:51:32;;;;;;;10.68;3.08;;;14.50;99.90;;;;;;4124555;28;20794;-79
2021/05/19 09:53:40;;;;;;;10.63;3.20;;;14.70;99.90;;;;;;4128522;28;20173;-79
2021/05/19 09:56:01;;;;;;;9.57;3.15;;;14.70;99.90;;;;;;4129011;28;21989;-79
2021/05/19 09:58:03;;;;;;;8.18;3.20;;;14.80;99.90;;;;;;4124184;28;20031;-79
2021/05/19 10:00:05;;;;;;;10.52;3.45;;;15.00;99.90;;;;;;4129183;28;20045;-79
2021/05/19 10:02:06;;;;;;;8.77;3.20;;;15.00;99.90;;;;;;4128630;28;20054;-79
2021/05/19 10:04:08;;;;;;;10.02;3.05;;;15.10;99.90;;;;;;4134579;28;20049;-79
2021/05/19 10:08:24;;;;;;;7.40;2.72;;;15.20;99.90;;;;;;4126706;28;20101;-79
2021/05/19 10:10:26;;;;;;;9.20;2.78;;;15.20;99.90;;;;;;4122072;28;20035;-78
2021/05/19 10:12:27;;;;;;;7.85;3.08;;;15.30;99.90;;;;;;4130905;28;20031;-78
2021/05/19 10:14:27;;;;;;;8.10;3.22;;;15.30;99.90;;;;;;4128799;28;20368;-79
2021/05/19 10:16:28;;;;;;;5.05;2.83;;;15.30;99.90;;;;;;4126493;28;20485;-80
2021/05/19 10:18:33;;;;;;;8.93;3.35;;;15.30;99.90;;;;;;4131968;28;20031;-78
2021/05/19 10:20:42;;;;;;;7.70;3.10;;;15.30;99.90;;;;;;4130918;28;20599;-79
2021/05/19 10:22:45;;;;;;;7.88;2.55;;;15.30;99.90;;;;;;4132739;28;20027;-79
2021/05/19 10:24:54;;;;;;;4.25;2.42;;;15.40;99.90;;;;;;4128328;28;20050;-80
2021/05/19 10:27:08;;;;;;;8.30;3.03;;;15.40;99.90;;;;;;4123854;28;20031;-79
2021/05/19 10:29:14;;;;;;;5.53;2.40;;;15.40;99.90;;;;;;4123420;28;20364;-80
2021/05/19 10:31:33;;;;;;;8.07;3.00;;;15.40;99.90;;;;;;4122508;28;20053;-79
2021/05/19 10:33:39;;;;;;;7.28;2.70;;;15.40;99.90;;;;;;4123828;28;20398;-79
2021/05/19 10:35:42;;;;;;;6.65;3.00;;;15.50;99.90;;;;;;4123648;28;20121;-79
2021/05/19 10:37:47;;;;;;;11.25;3.03;;;15.60;99.90;;;;;;4114862;28;20097;-78